Time;durP1;ratioP1;P1;durP2;ratioP2;P2;SDS_P1;SDS_P2;PMS_P1;PMS_P2;Temp;Humidity;BMP_temperature;BMP_pressure;BME280_temperature;BME280_humidity;BME280_pressure;Samples;Min_cycle;Max_cycle;Signal;HPM_P1;HPM_P2
2021/11/24 00:01:42;;;;;;;12.20;7.32;;;;;;;6.58;90.33;99202.25;5093994;28;20080;-60
2021/11/24 00:04:07;;;;;;;12.88;6.93;;;;;;;6.85;89.98;99253.81;5089373;28;20486;-60
2021/11/24 00:06:33;;;;;;;10.50;6.32;;;;;;;6.87;90.52;99250.19;5072928;28;20023;-60
2021/11/24 00:08:58;;;;;;;10.75;6.43;;;;;;;6.84;90.59;99255.56;5073065;28;20706;-59
2021/11/24 00:11:23;;;;;;;11.30;7.13;;;;;;;6.65;90.54;99237.91;5089466;28;20016;-60
2021/11/24 00:13:49;;;;;;;9.90;6.63;;;;;;;6.77;91.05;99251.75;5072477;28;20089;-60
2021/11/24 00:16:14;;;;;;;11.95;6.63;;;;;;;6.91;89.68;99253.38;5087660;27;20492;-60
2021/11/24 00:18:40;;;;;;;10.25;6.60;;;;;;;6.87;89.54;99254.53;5086065;28;20035;-59
2021/11/24 00:21:07;;;;;;;12.48;6.50;;;;;;;6.28;90.26;99191.31;5076496;27;20030;-60
2021/11/24 00:23:33;;;;;;;11.48;6.90;;;;;;;6.29;91.24;99210.22;5069233;28;20053;-60
2021/11/24 00:25:58;;;;;;;10.23;6.50;;;;;;;6.67;90.34;99245.56;5064807;28;20028;-60
2021/11/24 00:28:24;;;;;;;9.55;6.40;;;;;;;6.64;90.32;99244.00;5083626;28;20031;-60
2021/11/24 00:30:49;;;;;;;11.32;6.50;;;;;;;6.61;90.56;99248.53;5092462;28;20028;-60
2021/11/24 00:33:15;;;;;;;10.15;6.22;;;;;;;6.11;90.47;99179.50;5082707;28;20063;-60
2021/11/24 00:35:40;;;;;;;10.25;6.75;;;;;;;6.52;89.90;99240.50;5090208;28;20031;-60
2021/11/24 00:38:05;;;;;;;10.27;6.47;;;;;;;6.33;90.14;99229.75;5090480;28;20377;-60
2021/11/24 00:40:31;;;;;;;11.02;7.20;;;;;;;6.48;90.07;99223.56;5089254;28;20027;-60
2021/11/24 00:42:56;;;;;;;9.73;6.60;;;;;;;6.40;89.98;99235.31;5085323;28;20047;-59
2021/11/24 00:45:22;;;;;;;10.23;6.78;;;;;;;6.34;90.09;99247.72;5104325;27;20789;-59
2021/11/24 00:47:49;;;;;;;11.10;7.28;;;;;;;6.45;91.02;99243.59;5092255;28;20026;-60
2021/11/24 00:50:15;;;;;;;11.32;6.88;;;;;;;6.43;89.80;99245.47;5063836;28;20038;-60
2021/11/24 00:52:40;;;;;;;11.82;7.40;;;;;;;6.12;91.02;99250.06;5068356;28;20023;-61
2021/11/24 00:55:06;;;;;;;11.48;7.03;;;;;;;6.20;90.43;99245.22;5088804;28;20042;-61
2021/11/24 00:57:31;;;;;;;13.48;6.88;;;;;;;6.37;89.52;99248.44;5088575;28;20111;-61
2021/11/24 00:59:57;;;;;;;10.77;7.45;;;;;;;6.31;90.34;99241.94;5085986;28;20085;-61
2021/11/24 01:02:22;;;;;;;11.68;7.72;;;;;;;6.33;90.40;99250.41;5080702;28;20292;-60
2021/11/24 01:04:48;;;;;;;11.05;7.57;;;;;;;6.24;89.95;99251.88;5086185;28;20466;-58
2021/11/24 01:07:14;;;;;;;11.98;7.30;;;;;;;6.22;89.75;99239.97;5090618;28;20027;-60
2021/11/24 01:09:39;;;;;;;12.65;6.93;;;;;;;6.05;90.40;99247.06;5068841;28;20016;-60
2021/11/24 01:12:05;;;;;;;11.13;7.25;;;;;;;6.04;90.71;99255.75;5063577;28;20496;-58
2021/11/24 01:14:30;;;;;;;13.30;7.78;;;;;;;6.04;90.62;99248.00;5063689;28;20020;-59
2021/11/24 01:16:56;;;;;;;12.85;8.10;;;;;;;6.20;89.66;99250.38;5083404;28;20107;-60
2021/11/24 01:19:21;;;;;;;13.82;8.30;;;;;;;5.96;89.25;99209.75;5065470;28;20298;-59
2021/11/24 01:21:47;;;;;;;11.13;7.90;;;;;;;6.15;89.18;99253.28;5089995;28;20049;-58
2021/11/24 01:24:13;;;;;;;12.35;7.93;;;;;;;6.00;89.74;99266.38;5062997;28;20027;-58
2021/11/24 01:26:38;;;;;;;12.93;7.90;;;;;;;5.97;90.20;99264.81;5065440;28;20839;-59
2021/11/24 01:29:04;;;;;;;11.52;7.82;;;;;;;5.96;90.25;99258.00;5084883;28;20031;-58
2021/11/24 01:31:29;;;;;;;12.18;7.78;;;;;;;6.04;89.21;99260.91;5072164;28;20085;-58
2021/11/24 01:33:55;;;;;;;13.93;8.38;;;;;;;6.00;89.71;99267.19;5086290;28;20028;-59
2021/11/24 01:36:20;;;;;;;12.85;7.90;;;;;;;5.91;89.98;99254.84;5091728;28;20111;-58
2021/11/24 01:38:46;;;;;;;13.27;7.88;;;;;;;5.97;89.67;99254.50;5089032;28;20084;-58
2021/11/24 01:41:13;;;;;;;14.57;8.43;;;;;;;5.97;90.02;99263.06;5106387;28;20330;-58
2021/11/24 01:43:39;;;;;;;11.98;8.15;;;;;;;6.01;89.87;99262.88;5090606;28;20039;-58
2021/11/24 01:46:04;;;;;;;11.20;7.55;;;;;;;6.01;90.01;99253.34;5085681;28;20089;-59
2021/11/24 01:48:29;;;;;;;14.75;8.07;;;;;;;5.86;89.35;99239.66;5093739;28;20475;-58
2021/11/24 01:50:55;;;;;;;12.50;7.95;;;;;;;5.91;89.74;99254.84;5086938;28;20032;-58
2021/11/24 01:53:21;;;;;;;11.65;7.72;;;;;;;5.95;90.00;99256.28;5065477;28;20043;-58
2021/11/24 01:55:47;;;;;;;13.02;8.05;;;;;;;5.90;90.61;99254.03;5093784;28;20030;-58
2021/11/24 01:58:13;;;;;;;11.50;7.68;;;;;;;5.88;90.60;99253.28;5067335;28;20024;-58
2021/11/24 02:00:38;;;;;;;12.68;7.40;;;;;;;5.78;90.81;99240.13;5072622;28;20089;-58
2021/11/24 02:03:05;;;;;;;14.43;8.00;;;;;;;5.86;91.37;99249.13;5091077;28;20053;-60
2021/11/24 02:05:32;;;;;;;13.65;8.23;;;;;;;5.77;91.03;99243.66;5068656;28;20038;-61
2021/11/24 02:07:57;;;;;;;11.88;7.75;;;;;;;5.87;90.54;99255.97;5067119;28;20028;-59
2021/11/24 02:10:23;;;;;;;11.50;7.97;;;;;;;5.29;91.50;99203.75;5093970;28;20031;-60
2021/11/24 02:12:50;;;;;;;12.60;7.47;;;;;;;5.58;92.03;99264.66;5084143;27;20119;-63
2021/11/24 02:15:16;;;;;;;12.70;7.70;;;;;;;5.62;91.77;99254.13;5093010;28;20471;-61
2021/11/24 02:17:41;;;;;;;11.63;7.45;;;;;;;5.82;90.85;99247.69;5072097;28;20026;-60
2021/11/24 02:20:15;;;;;;;12.27;7.50;;;;;;;5.63;89.67;99204.19;5070177;28;20189;-61
2021/11/24 02:22:40;;;;;;;11.80;7.53;;;;;;;5.80;90.58;99237.47;5078869;28;20060;-60
2021/11/24 02:25:06;;;;;;;11.43;7.75;;;;;;;5.55;90.63;99209.84;5062010;28;20127;-61
2021/11/24 02:27:31;;;;;;;10.90;7.63;;;;;;;5.41;91.48;99204.75;5067403;28;20802;-59
2021/11/24 02:29:57;;;;;;;12.32;8.18;;;;;;;5.64;90.62;99234.22;5095925;28;20109;-58
2021/11/24 02:32:22;;;;;;;11.00;7.70;;;;;;;5.60;90.47;99233.56;5090749;28;20447;-60
2021/11/24 02:34:48;;;;;;;12.77;7.70;;;;;;;5.51;90.97;99239.31;5077552;28;20019;-59
2021/11/24 02:37:13;;;;;;;12.48;8.38;;;;;;;5.62;91.30;99242.03;5089227;28;20638;-61
2021/11/24 02:39:39;;;;;;;14.13;7.88;;;;;;;5.68;90.06;99236.50;5094961;28;20110;-60
2021/11/24 02:42:04;;;;;;;10.73;7.15;;;;;;;5.51;90.89;99240.19;5097755;28;20053;-59
2021/11/24 02:44:39;;;;;;;10.88;7.15;;;;;;;5.59;91.23;99234.53;5064664;28;20133;-59
2021/11/24 02:47:12;;;;;;;11.75;7.47;;;;;;;5.64;90.63;99229.06;5068945;28;20134;-59
2021/11/24 02:49:43;;;;;;;11.77;8.00;;;;;;;5.27;89.93;99174.66;5092059;28;20453;-61
2021/11/24 02:52:09;;;;;;;13.48;7.93;;;;;;;5.66;90.37;99230.63;5067974;28;20098;-64
2021/11/24 02:54:35;;;;;;;12.98;7.88;;;;;;;5.49;90.35;99234.25;5088505;28;20114;-60
2021/11/24 02:57:02;;;;;;;12.57;7.55;;;;;;;5.42;90.72;99225.28;5079574;28;20043;-61
2021/11/24 02:59:28;;;;;;;11.73;7.65;;;;;;;5.61;89.65;99229.28;5110867;27;20040;-61
2021/11/24 03:01:53;;;;;;;12.98;8.20;;;;;;;5.31;89.94;99176.09;5076296;28;20461;-58
2021/11/24 03:04:19;;;;;;;11.63;7.32;;;;;;;5.55;90.03;99215.84;5069252;28;20044;-58
2021/11/24 03:06:44;;;;;;;11.57;7.53;;;;;;;5.29;90.23;99172.81;5062640;28;20055;-60
2021/11/24 03:09:10;;;;;;;10.63;7.25;;;;;;;5.16;90.76;99163.25;5088534;28;20027;-59
2021/11/24 03:11:35;;;;;;;10.50;7.38;;;;;;;5.09;91.03;99162.03;5091999;28;20077;-60
2021/11/24 03:14:01;;;;;;;13.88;7.55;;;;;;;5.43;90.60;99205.47;5072143;28;20151;-60
2021/11/24 03:16:26;;;;;;;12.55;6.97;;;;;;;5.53;90.67;99211.69;5091874;28;20073;-61
2021/11/24 03:18:52;;;;;;;11.52;7.57;;;;;;;5.48;90.70;99209.41;5092924;28;20527;-59
2021/11/24 03:21:18;;;;;;;12.23;7.25;;;;;;;5.56;90.79;99207.16;5091379;27;20038;-60
2021/11/24 03:23:44;;;;;;;11.02;7.15;;;;;;;5.44;90.86;99210.53;5091289;28;20020;-60
2021/11/24 03:26:09;;;;;;;10.93;7.20;;;;;;;5.38;90.88;99209.19;5092354;28;20042;-60
2021/11/24 03:28:35;;;;;;;10.90;7.40;;;;;;;5.32;90.88;99203.56;5057687;28;20007;-60
2021/11/24 03:31:00;;;;;;;9.77;6.32;;;;;;;5.36;91.31;99199.88;5071691;28;20118;-61
2021/11/24 03:33:25;;;;;;;11.25;6.68;;;;;;;5.39;91.21;99186.78;5095470;28;20115;-61
2021/11/24 03:35:51;;;;;;;11.52;6.72;;;;;;;5.30;90.75;99187.38;5092758;28;20024;-59
2021/11/24 03:38:16;;;;;;;11.20;6.60;;;;;;;5.26;91.01;99197.03;5084277;28;20383;-60
2021/11/24 03:40:42;;;;;;;13.52;6.78;;;;;;;5.32;91.43;99198.41;5091749;28;20039;-61
2021/11/24 03:43:07;;;;;;;9.95;6.32;;;;;;;5.33;91.17;99198.31;5095103;28;20066;-62
2021/11/24 03:45:35;;;;;;;9.90;6.57;;;;;;;5.45;91.22;99204.44;5091275;28;20020;-63
2021/11/24 03:48:03;;;;;;;10.50;6.72;;;;;;;5.27;90.83;99203.03;5069342;28;20020;-61
2021/11/24 03:50:28;;;;;;;9.52;6.20;;;;;;;5.17;90.15;99180.41;5068650;28;20035;-60
2021/11/24 03:52:54;;;;;;;9.63;6.13;;;;;;;4.95;90.64;99144.00;5094028;28;20028;-59
2021/11/24 03:55:20;;;;;;;10.35;6.30;;;;;;;5.27;90.85;99188.38;5070211;28;20043;-60
2021/11/24 03:57:46;;;;;;;9.27;6.18;;;;;;;5.22;90.89;99177.53;5088669;28;20028;-64
2021/11/24 04:00:15;;;;;;;10.60;6.13;;;;;;;5.19;91.14;99183.69;5095724;28;20023;-62
2021/11/24 04:02:40;;;;;;;10.57;6.25;;;;;;;4.87;92.09;99136.72;5090488;28;20076;-60
2021/11/24 04:05:07;;;;;;;10.15;5.97;;;;;;;5.04;91.45;99186.41;5102481;27;20039;-62
2021/11/24 04:07:33;;;;;;;9.63;6.63;;;;;;;4.95;91.76;99183.50;5089710;28;20040;-60
2021/11/24 04:09:58;;;;;;;10.75;6.95;;;;;;;5.03;91.01;99185.59;5093233;28;20657;-59
2021/11/24 04:12:24;;;;;;;10.50;7.55;;;;;;;5.12;90.56;99191.94;5086012;28;20016;-60
2021/11/24 04:14:49;;;;;;;11.45;7.45;;;;;;;5.04;90.98;99187.25;5088059;28;20024;-63
2021/11/24 04:17:15;;;;;;;12.60;6.93;;;;;;;5.03;90.64;99183.00;5085863;28;20103;-60
2021/11/24 04:19:40;;;;;;;12.40;7.72;;;;;;;4.97;91.22;99181.63;5077303;28;20027;-60
2021/11/24 04:22:07;;;;;;;10.00;6.57;;;;;;;4.95;91.22;99182.66;5044385;27;20528;-60
2021/11/24 04:24:33;;;;;;;12.70;6.60;;;;;;;4.98;91.21;99179.88;5086599;28;20027;-59
2021/11/24 04:26:59;;;;;;;13.15;7.32;;;;;;;5.08;90.78;99177.59;5087185;28;20041;-59
2021/11/24 04:29:24;;;;;;;11.10;6.20;;;;;;;5.00;91.47;99178.88;5067812;28;20024;-59
2021/11/24 04:31:50;;;;;;;9.80;6.30;;;;;;;5.07;90.72;99169.00;5065570;28;20027;-62
2021/11/24 04:34:15;;;;;;;13.32;7.10;;;;;;;4.71;90.64;99139.47;5088995;28;20078;-59
2021/11/24 04:36:41;;;;;;;11.98;6.78;;;;;;;4.53;90.63;99131.09;5092760;28;20042;-59
2021/11/24 04:39:06;;;;;;;11.63;6.43;;;;;;;4.79;91.28;99167.31;5066321;28;20201;-59
2021/11/24 04:41:32;;;;;;;11.55;6.88;;;;;;;4.72;90.36;99177.16;5091279;28;20035;-60
2021/11/24 04:43:57;;;;;;;12.05;6.47;;;;;;;4.41;91.80;99132.66;5059858;28;20028;-61
2021/11/24 04:46:22;;;;;;;11.43;6.68;;;;;;;4.92;90.66;99178.50;5069760;28;20040;-60
2021/11/24 04:48:48;;;;;;;12.30;6.38;;;;;;;4.96;89.59;99176.56;5067232;28;20414;-59
2021/11/24 04:51:14;;;;;;;11.13;6.47;;;;;;;4.81;90.52;99171.44;5068720;28;20020;-59
2021/11/24 04:53:39;;;;;;;11.25;6.80;;;;;;;4.69;90.71;99179.94;5084652;28;20485;-59
2021/11/24 04:56:05;;;;;;;12.80;6.70;;;;;;;4.76;90.45;99176.06;5090434;28;20418;-60
2021/11/24 04:58:30;;;;;;;11.43;6.10;;;;;;;4.82;90.11;99178.25;5083280;28;20513;-60
2021/11/24 05:00:56;;;;;;;9.00;5.72;;;;;;;4.75;90.61;99171.84;5089068;28;20047;-61
2021/11/24 05:03:21;;;;;;;11.25;6.00;;;;;;;4.66;89.69;99148.41;5086318;28;20020;-60
2021/11/24 05:05:47;;;;;;;10.75;5.93;;;;;;;4.82;90.22;99175.69;5091341;28;20758;-60
2021/11/24 05:08:12;;;;;;;10.13;6.50;;;;;;;4.38;89.90;99112.28;5095120;28;20106;-61
2021/11/24 05:10:38;;;;;;;9.98;6.35;;;;;;;4.68;90.47;99174.88;5087936;28;20040;-61
2021/11/24 05:13:07;;;;;;;10.57;6.85;;;;;;;4.63;90.33;99164.84;5086362;28;20559;-61
2021/11/24 05:15:35;;;;;;;12.43;7.47;;;;;;;4.77;90.29;99167.41;5071441;28;20053;-61
2021/11/24 05:18:06;;;;;;;15.27;8.13;;;;;;;4.89;89.42;99173.56;5108257;28;20020;-62
2021/11/24 05:20:32;;;;;;;12.27;7.75;;;;;;;4.88;90.16;99163.34;5090382;28;20119;-59
2021/11/24 05:23:00;;;;;;;14.55;7.53;;;;;;;4.84;90.24;99161.88;5080117;28;20027;-60
2021/11/24 05:25:27;;;;;;;13.38;7.35;;;;;;;4.89;91.29;99168.41;5054484;28;20030;-60
2021/11/24 05:27:53;;;;;;;13.27;7.68;;;;;;;4.88;90.38;99159.03;5070610;28;20015;-60
2021/11/24 05:30:19;;;;;;;13.48;7.53;;;;;;;4.87;91.08;99166.84;5071965;28;20031;-58
2021/11/24 05:32:44;;;;;;;14.27;8.50;;;;;;;4.89;91.44;99158.13;5084919;28;20547;-59
2021/11/24 05:35:09;;;;;;;16.88;9.85;;;;;;;5.01;90.03;99159.91;5066291;28;20024;-61
2021/11/24 05:37:35;;;;;;;18.38;12.48;;;;;;;4.61;90.45;99104.88;5095579;28;20045;-58
2021/11/24 05:40:00;;;;;;;15.20;9.95;;;;;;;4.80;91.30;99161.22;5070464;28;20469;-60
2021/11/24 05:42:27;;;;;;;18.55;10.63;;;;;;;4.80;91.41;99156.06;5098592;28;20520;-59
2021/11/24 05:45:02;;;;;;;18.65;14.32;;;;;;;4.85;90.99;99153.22;5097438;27;20150;-60
2021/11/24 05:50:12;;;;;;;21.73;14.68;;;;;;;4.95;91.89;99151.75;5076337;28;20062;-60
2021/11/24 05:52:38;;;;;;;19.92;14.20;;;;;;;5.04;91.51;99148.59;5099240;28;20049;-59
2021/11/24 05:55:04;;;;;;;20.27;13.70;;;;;;;5.08;91.21;99155.19;5094428;28;20707;-59
2021/11/24 05:57:29;;;;;;;23.83;13.55;;;;;;;4.76;91.11;99105.66;5092269;28;20095;-61
2021/11/24 05:59:55;;;;;;;19.98;13.52;;;;;;;4.84;91.61;99126.63;5094401;28;20034;-61
2021/11/24 06:02:20;;;;;;;20.48;12.90;;;;;;;5.06;92.19;99151.06;5070745;28;20035;-60
2021/11/24 06:04:46;;;;;;;17.42;11.05;;;;;;;5.00;92.46;99157.41;5091371;28;20058;-61
2021/11/24 06:07:11;;;;;;;17.95;10.05;;;;;;;4.96;92.40;99153.38;5092937;27;20065;-60
2021/11/24 06:09:36;;;;;;;12.98;8.50;;;;;;;4.98;92.51;99154.09;5094180;27;20031;-59
2021/11/24 06:12:02;;;;;;;14.77;9.50;;;;;;;5.09;93.58;99150.88;5090876;28;20114;-59
2021/11/24 06:14:27;;;;;;;14.40;9.35;;;;;;;5.01;92.65;99148.78;5075250;27;20035;-61
2021/11/24 06:16:53;;;;;;;12.55;8.25;;;;;;;5.13;92.48;99139.44;5089456;27;20118;-61
2021/11/24 06:19:18;;;;;;;12.77;7.68;;;;;;;4.77;93.14;99094.44;5067976;28;20114;-58
2021/11/24 06:21:44;;;;;;;17.30;8.20;;;;;;;4.73;92.69;99087.84;5091094;27;20024;-60
2021/11/24 06:24:10;;;;;;;13.63;7.13;;;;;;;4.76;92.75;99090.22;5081501;28;20024;-59
2021/11/24 06:26:35;;;;;;;11.90;7.35;;;;;;;5.14;92.43;99154.81;5094262;27;20024;-59
2021/11/24 06:29:01;;;;;;;10.50;6.85;;;;;;;5.13;92.36;99149.75;5093528;27;20027;-61
2021/11/24 06:31:28;;;;;;;10.35;6.80;;;;;;;4.88;92.59;99104.09;5074330;28;20173;-59
2021/11/24 06:33:53;;;;;;;10.57;7.10;;;;;;;5.20;92.72;99157.00;5045827;28;20330;-60
2021/11/24 06:36:24;;;;;;;11.85;8.65;;;;;;;5.29;92.92;99154.75;5086625;28;20031;-61
2021/11/24 06:38:49;;;;;;;13.70;8.65;;;;;;;5.13;92.39;99123.97;5096627;27;20046;-60
2021/11/24 06:41:14;;;;;;;13.52;8.10;;;;;;;5.42;92.79;99170.28;5078967;27;20099;-60
2021/11/24 06:43:40;;;;;;;14.43;8.38;;;;;;;5.46;93.32;99175.16;5089420;28;20540;-61
2021/11/24 06:46:05;;;;;;;13.98;8.77;;;;;;;5.15;93.42;99122.13;5093868;28;20480;-59
2021/11/24 06:48:31;;;;;;;16.52;9.52;;;;;;;5.48;93.03;99168.13;5074241;27;20806;-59
2021/11/24 06:50:57;;;;;;;13.80;9.25;;;;;;;5.50;92.93;99168.84;5088017;27;20032;-62
2021/11/24 06:53:22;;;;;;;14.38;9.85;;;;;;;5.35;94.06;99139.72;5065429;28;20411;-59
2021/11/24 06:55:47;;;;;;;14.35;9.10;;;;;;;5.61;93.82;99167.34;5092315;27;20024;-62
2021/11/24 06:58:14;;;;;;;14.73;9.23;;;;;;;5.37;94.94;99126.75;5086498;27;20107;-60
2021/11/24 07:00:40;;;;;;;16.23;8.45;;;;;;;5.38;94.45;99115.47;5088337;28;20034;-60
2021/11/24 07:03:05;;;;;;;16.17;9.65;;;;;;;5.62;94.76;99174.16;5090181;28;20020;-60
2021/11/24 07:05:31;;;;;;;13.05;8.27;;;;;;;5.56;95.89;99178.78;5087705;27;20066;-60
2021/11/24 07:07:56;;;;;;;12.70;8.93;;;;;;;5.68;95.73;99169.44;5092442;27;20020;-60
2021/11/24 07:10:22;;;;;;;16.45;9.10;;;;;;;5.74;95.82;99166.44;5093355;27;20161;-58
2021/11/24 07:12:47;;;;;;;12.00;9.02;;;;;;;5.78;95.23;99172.22;5071006;27;20096;-62
2021/11/24 07:15:13;;;;;;;18.05;9.00;;;;;;;5.88;95.10;99173.28;5086547;27;20894;-59
2021/11/24 07:17:38;;;;;;;13.85;9.45;;;;;;;5.95;94.57;99171.09;5104798;27;20418;-59
2021/11/24 07:20:05;;;;;;;16.00;9.55;;;;;;;5.95;94.78;99168.53;5086715;27;20753;-58
2021/11/24 07:22:31;;;;;;;15.88;10.32;;;;;;;5.81;94.67;99143.66;5089539;27;20032;-60
2021/11/24 07:24:57;;;;;;;18.17;9.23;;;;;;;5.73;95.21;99123.50;5070464;28;20035;-60
2021/11/24 07:27:22;;;;;;;15.82;9.30;;;;;;;6.03;95.01;99155.16;5087611;27;20028;-60
2021/11/24 07:29:48;;;;;;;15.65;8.63;;;;;;;6.11;95.06;99168.38;5111182;27;20277;-62
2021/11/24 07:32:13;;;;;;;15.40;8.55;;;;;;;5.88;95.19;99138.91;5091546;28;20028;-61
2021/11/24 07:34:39;;;;;;;17.35;8.50;;;;;;;6.13;95.97;99164.78;5093952;28;20042;-61
2021/11/24 07:37:04;;;;;;;13.82;9.00;;;;;;;5.92;95.56;99117.13;5093575;28;20483;-61
2021/11/24 07:39:31;;;;;;;16.05;9.35;;;;;;;6.20;96.26;99159.19;5069122;28;20401;-60
2021/11/24 07:41:56;;;;;;;16.80;8.63;;;;;;;6.22;95.37;99172.81;5076055;27;20015;-61
2021/11/24 07:44:22;;;;;;;14.55;9.23;;;;;;;6.23;95.60;99177.88;5087772;28;20092;-61
2021/11/24 07:46:47;;;;;;;14.45;8.80;;;;;;;6.19;95.31;99170.44;5077641;27;20505;-61
2021/11/24 07:49:13;;;;;;;14.40;9.25;;;;;;;6.21;95.32;99168.59;5090888;28;20458;-61
2021/11/24 07:51:38;;;;;;;16.20;9.15;;;;;;;6.26;95.44;99169.09;5094597;28;20394;-61
2021/11/24 07:54:03;;;;;;;15.23;9.93;;;;;;;6.24;95.90;99168.38;5110680;27;20046;-60
2021/11/24 07:56:29;;;;;;;15.52;9.68;;;;;;;6.09;96.04;99121.19;5095845;28;20040;-61
2021/11/24 07:58:54;;;;;;;15.30;9.55;;;;;;;6.27;96.19;99150.09;5086147;28;20027;-61
2021/11/24 08:01:20;;;;;;;15.02;9.68;;;;;;;6.40;96.22;99161.22;5091795;28;20315;-60
2021/11/24 08:03:45;;;;;;;11.68;8.55;;;;;;;6.17;95.48;99144.75;5062219;28;20660;-60
2021/11/24 08:06:11;;;;;;;13.45;8.63;;;;;;;6.24;95.25;99166.63;5074637;28;20031;-61
2021/11/24 08:08:36;;;;;;;13.40;9.20;;;;;;;6.26;95.44;99162.19;5069465;28;20094;-61
2021/11/24 08:11:03;;;;;;;13.13;9.75;;;;;;;6.26;95.16;99169.09;5067045;28;20050;-61
2021/11/24 08:13:28;;;;;;;13.07;8.45;;;;;;;6.37;94.97;99165.78;5075866;28;20051;-61
2021/11/24 08:15:54;;;;;;;12.95;9.10;;;;;;;6.30;95.44;99170.56;5086414;28;20483;-61
2021/11/24 08:18:20;;;;;;;11.90;8.35;;;;;;;6.25;95.13;99145.03;5068096;28;20020;-61
2021/11/24 08:20:45;;;;;;;12.05;8.20;;;;;;;6.44;94.78;99175.59;5091379;28;20764;-60
2021/11/24 08:23:11;;;;;;;11.27;7.40;;;;;;;6.34;94.81;99169.41;5062321;28;20032;-61
2021/11/24 08:25:37;;;;;;;11.35;8.13;;;;;;;6.37;94.09;99171.81;5088544;28;20027;-60
2021/11/24 08:28:03;;;;;;;11.75;9.00;;;;;;;6.25;93.82;99172.63;5066836;28;20028;-60
2021/11/24 08:30:29;;;;;;;13.25;9.05;;;;;;;6.23;94.62;99164.97;5067241;28;20443;-60
2021/11/24 08:32:55;;;;;;;12.20;8.13;;;;;;;6.20;94.91;99164.34;5077612;28;20041;-61
2021/11/24 08:35:20;;;;;;;14.15;9.57;;;;;;;6.15;94.90;99169.81;5085296;28;20028;-61
2021/11/24 08:37:46;;;;;;;12.23;9.05;;;;;;;5.86;95.93;99122.69;5066970;28;20055;-60
2021/11/24 08:40:13;;;;;;;11.70;8.27;;;;;;;6.11;95.50;99156.28;5089736;28;20043;-60
2021/11/24 08:42:38;;;;;;;13.02;8.57;;;;;;;6.22;95.45;99163.31;5090755;28;20029;-60
2021/11/24 08:45:06;;;;;;;12.27;8.23;;;;;;;6.20;94.79;99169.50;5092395;28;20015;-60
2021/11/24 08:47:32;;;;;;;12.90;8.50;;;;;;;6.28;94.91;99164.66;5047944;27;20044;-61
2021/11/24 08:49:57;;;;;;;12.48;7.78;;;;;;;6.31;95.48;99162.69;5069811;28;20038;-60
2021/11/24 08:52:23;;;;;;;13.45;8.73;;;;;;;6.19;95.04;99150.63;5073285;28;20097;-61
2021/11/24 08:54:48;;;;;;;11.65;7.75;;;;;;;6.22;95.01;99165.06;5094710;28;20035;-60
2021/11/24 08:57:14;;;;;;;11.13;7.95;;;;;;;6.23;94.64;99157.22;5092737;28;20028;-60
2021/11/24 08:59:39;;;;;;;14.13;8.38;;;;;;;6.25;95.23;99155.34;5076011;28;20351;-61
2021/11/24 09:02:06;;;;;;;13.05;9.00;;;;;;;6.27;95.47;99147.50;5093532;28;20024;-60
2021/11/24 09:04:32;;;;;;;13.50;8.70;;;;;;;6.23;94.69;99144.31;5097735;28;20061;-61
2021/11/24 09:06:58;;;;;;;14.18;8.02;;;;;;;6.39;94.09;99138.09;5067651;28;20573;-60
2021/11/24 09:09:23;;;;;;;11.10;7.80;;;;;;;6.09;94.44;99096.19;5094982;28;20542;-60
2021/11/24 09:11:48;;;;;;;11.27;7.43;;;;;;;6.35;94.26;99133.16;5094130;28;20085;-60
2021/11/24 09:14:14;;;;;;;10.45;7.78;;;;;;;6.51;94.45;99148.41;5085575;28;20034;-61
2021/11/24 09:16:39;;;;;;;10.82;7.28;;;;;;;6.59;93.94;99141.88;5070635;28;20019;-60
2021/11/24 09:19:05;;;;;;;11.10;7.65;;;;;;;6.58;94.52;99132.50;5062153;28;20027;-60
2021/11/24 09:21:30;;;;;;;10.80;7.85;;;;;;;6.67;93.76;99153.34;5070666;28;20455;-60
2021/11/24 09:24:01;;;;;;;12.80;8.05;;;;;;;6.64;94.03;99143.22;5090920;28;20504;-61
2021/11/24 09:26:31;;;;;;;10.73;7.32;;;;;;;6.32;93.64;99093.78;5095244;28;20036;-61
2021/11/24 09:28:56;;;;;;;12.50;8.10;;;;;;;6.62;94.58;99144.25;5094475;28;20015;-61
2021/11/24 09:31:22;;;;;;;11.18;8.00;;;;;;;6.35;94.20;99097.00;5112293;27;20551;-61
2021/11/24 09:33:47;;;;;;;11.90;8.38;;;;;;;6.66;94.06;99140.53;5074697;28;20638;-61
2021/11/24 09:36:13;;;;;;;12.13;7.95;;;;;;;6.68;93.80;99139.50;5104970;28;20108;-61
2021/11/24 09:38:39;;;;;;;13.20;8.27;;;;;;;6.59;94.32;99128.97;5089845;28;20310;-61
2021/11/24 09:41:08;;;;;;;13.77;8.55;;;;;;;6.60;94.18;99128.88;5066876;28;20032;-60
2021/11/24 09:43:36;;;;;;;14.02;7.97;;;;;;;6.35;94.28;99088.41;5072537;28;20142;-60
2021/11/24 09:46:03;;;;;;;11.05;7.55;;;;;;;6.72;93.20;99124.59;5094645;28;20031;-60
2021/11/24 09:48:29;;;;;;;11.50;8.13;;;;;;;6.79;93.54;99141.34;5093583;28;20359;-61
2021/11/24 09:50:56;;;;;;;10.80;7.53;;;;;;;6.68;93.30;99112.81;5066674;28;20031;-60
2021/11/24 09:53:22;;;;;;;11.43;7.57;;;;;;;6.61;93.10;99096.09;5074745;28;20435;-61
2021/11/24 09:55:49;;;;;;;12.98;8.32;;;;;;;6.65;92.81;99087.22;5026302;28;20042;-59
2021/11/24 09:58:15;;;;;;;11.50;8.10;;;;;;;6.92;92.96;99129.19;5066023;28;20078;-60
2021/11/24 10:00:41;;;;;;;13.55;8.63;;;;;;;6.97;92.20;99122.88;5090160;28;20382;-61
2021/11/24 10:03:08;;;;;;;11.20;7.50;;;;;;;6.93;93.12;99124.84;5090554;28;20022;-59
2021/11/24 10:05:35;;;;;;;11.43;8.10;;;;;;;6.98;93.02;99124.53;5072930;28;20023;-58
2021/11/24 10:08:00;;;;;;;10.98;7.90;;;;;;;6.97;93.14;99121.09;5068608;28;20497;-60
2021/11/24 10:10:26;;;;;;;11.07;7.75;;;;;;;6.89;92.25;99113.88;5093551;28;20032;-59
2021/11/24 10:12:53;;;;;;;11.45;7.88;;;;;;;6.92;92.10;99113.69;5094049;28;21264;-59
2021/11/24 10:15:42;;;;;;;10.90;7.45;;;;;;;7.04;91.61;99105.97;5081432;28;20115;-59
2021/11/24 10:18:21;;;;;;;9.82;6.90;;;;;;;6.81;90.47;99048.16;5094687;28;20034;-60
2021/11/24 10:20:48;;;;;;;11.02;7.35;;;;;;;7.13;90.11;99097.56;5092314;27;20824;-58
2021/11/24 10:23:31;;;;;;;12.00;7.90;;;;;;;7.14;91.16;99086.28;5092449;27;20320;-58
2021/11/24 10:26:16;;;;;;;9.90;7.10;;;;;;;6.97;91.34;99050.47;5079551;28;20114;-60
2021/11/24 10:28:54;;;;;;;11.02;6.95;;;;;;;7.20;91.37;99077.25;5081980;28;20016;-59
2021/11/24 10:31:40;;;;;;;11.88;7.25;;;;;;;7.18;90.45;99064.44;5088116;28;20032;-61
2021/11/24 10:34:19;;;;;;;9.38;6.05;;;;;;;7.29;89.26;99066.22;5095397;27;20312;-60
2021/11/24 10:37:04;;;;;;;9.52;5.80;;;;;;;6.98;88.29;99011.59;5093626;28;20055;-59
2021/11/24 10:39:33;;;;;;;11.55;7.10;;;;;;;7.35;88.68;99052.84;5094156;28;20083;-60
2021/11/24 10:42:08;;;;;;;10.63;7.18;;;;;;;7.31;87.68;99051.44;5071530;28;20035;-60
2021/11/24 10:44:35;;;;;;;10.55;6.72;;;;;;;7.40;88.57;99055.09;5093780;28;20122;-59
2021/11/24 10:47:01;;;;;;;9.38;5.88;;;;;;;7.37;88.83;99019.09;5079031;28;20058;-58
2021/11/24 10:49:49;;;;;;;9.80;6.60;;;;;;;7.50;88.40;99040.53;5067173;28;20031;-59
2021/11/24 10:52:20;;;;;;;9.85;6.50;;;;;;;7.24;88.61;98988.97;5093583;28;20054;-60
2021/11/24 10:55:07;;;;;;;9.60;6.22;;;;;;;7.56;86.62;99039.28;5092508;28;20019;-60
2021/11/24 10:57:36;;;;;;;11.15;6.72;;;;;;;7.55;87.19;99035.03;5064466;27;20279;-60
2021/11/24 11:00:15;;;;;;;11.27;7.15;;;;;;;7.62;87.40;99028.44;5093268;28;20058;-62
2021/11/24 11:02:44;;;;;;;9.43;6.88;;;;;;;7.69;87.33;99029.63;5060349;28;20050;-58
2021/11/24 11:05:11;;;;;;;10.73;6.80;;;;;;;7.58;86.45;98985.63;5073545;28;20053;-59
2021/11/24 11:07:42;;;;;;;10.98;6.63;;;;;;;7.78;85.38;99022.94;5093229;28;20027;-60
2021/11/24 11:10:15;;;;;;;10.98;7.35;;;;;;;7.83;85.01;99021.66;5069256;28;20015;-60
2021/11/24 11:12:43;;;;;;;10.90;7.15;;;;;;;7.89;84.89;99015.16;5094268;27;20024;-60
2021/11/24 11:15:40;;;;;;;11.75;7.20;;;;;;;7.39;84.70;98926.66;5094271;28;20104;-60
2021/11/24 11:18:12;;;;;;;10.45;7.10;;;;;;;8.02;84.32;99015.88;5097498;28;20144;-60
2021/11/24 11:21:09;;;;;;;10.43;6.47;;;;;;;8.08;84.07;99002.44;5092152;28;20027;-60
2021/11/24 11:23:40;;;;;;;9.70;6.07;;;;;;;8.22;81.63;98991.00;5075501;28;20490;-60
2021/11/24 11:26:15;;;;;;;9.55;6.05;;;;;;;8.31;81.28;98996.41;5074832;28;20024;-60
2021/11/24 11:28:44;;;;;;;9.57;6.05;;;;;;;8.15;81.31;98970.88;5068675;28;20059;-60
2021/11/24 11:31:11;;;;;;;10.23;5.95;;;;;;;8.10;80.48;98940.16;5092296;28;20919;-60
2021/11/24 11:33:49;;;;;;;9.13;5.65;;;;;;;8.43;81.19;98990.28;5065356;28;20081;-60
2021/11/24 11:36:15;;;;;;;12.85;7.30;;;;;;;8.63;81.66;98981.75;5071559;28;20065;-60